sensor_id;sensor_type;location;lat;lon;timestamp;temperature;humidity
48264;DHT22;34086;51.076;13.722;2022-09-20T00:00:26;9.80;99.90
48264;DHT22;34086;51.076;13.722;2022-09-20T00:01:31;9.90;99.90
48264;DHT22;34086;51.076;13.722;2022-09-20T00:02:32;9.80;99.90
48264;DHT22;34086;51.076;13.722;2022-09-20T00:03:37;9.80;99.90
48264;DHT22;34086;51.076;13.722;2022-09-20T00:04:38;9.80;99.90
48264;DHT22;34086;51.076;13.722;2022-09-20T00:05:41;9.80;99.90
48264;DHT22;34086;51.076;13.722;2022-09-20T00:06:42;9.80;99.90
48264;DHT22;34086;51.076;13.722;2022-09-20T00:07:44;9.70;99.90
48264;DHT22;34086;51.076;13.722;2022-09-20T00:08:45;9.70;99.90
48264;DHT22;34086;51.076;13.722;2022-09-20T00:09:46;9.60;99.90
48264;DHT22;34086;51.076;13.722;2022-09-20T00:10:47;9.60;99.90
48264;DHT22;34086;51.076;13.722;2022-09-20T00:11:47;9.60;99.90
48264;DHT22;34086;51.076;13.722;2022-09-20T00:12:48;9.60;99.90
48264;DHT22;34086;51.076;13.722;2022-09-20T00:13:51;9.60;99.90
48264;DHT22;34086;51.076;13.722;2022-09-20T00:14:52;9.60;99.90
48264;DHT22;34086;51.076;13.722;2022-09-20T00:15:53;9.60;99.90
48264;DHT22;34086;51.076;13.722;2022-09-20T00:16:53;9.60;99.90
48264;DHT22;34086;51.076;13.722;2022-09-20T00:17:54;9.60;99.90
48264;DHT22;34086;51.076;13.722;2022-09-20T00:18:56;9.60;99.90
48264;DHT22;34086;51.076;13.722;2022-09-20T00:19:57;9.50;99.90
48264;DHT22;34086;51.076;13.722;2022-09-20T00:20:58;9.60;99.90
48264;DHT22;34086;51.076;13.722;2022-09-20T00:21:59;9.60;99.90
48264;DHT22;34086;51.076;13.722;2022-09-20T00:22:59;9.60;99.90
48264;DHT22;34086;51.076;13.722;2022-09-20T00:24:01;9.60;99.90
48264;DHT22;34086;51.076;13.722;2022-09-20T00:25:02;9.60;99.90
48264;DHT22;34086;51.076;13.722;2022-09-20T00:26:03;9.70;99.90
48264;DHT22;34086;51.076;13.722;2022-09-20T00:27:04;9.60;99.90
48264;DHT22;34086;51.076;13.722;2022-09-20T00:28:06;9.70;99.90
48264;DHT22;34086;51.076;13.722;2022-09-20T00:29:06;9.70;99.90
48264;DHT22;34086;51.076;13.722;2022-09-20T00:30:08;9.70;99.90
48264;DHT22;34086;51.076;13.722;2022-09-20T00:31:10;9.70;99.90
48264;DHT22;34086;51.076;13.722;2022-09-20T00:32:11;9.70;99.90
48264;DHT22;34086;51.076;13.722;2022-09-20T00:33:11;9.70;99.90
48264;DHT22;34086;51.076;13.722;2022-09-20T00:34:12;9.70;99.90
48264;DHT22;34086;51.076;13.722;2022-09-20T00:35:32;9.70;99.90
48264;DHT22;34086;51.076;13.722;2022-09-20T00:36:32;9.80;99.90
48264;DHT22;34086;51.076;13.722;2022-09-20T00:37:34;9.80;99.90
48264;DHT22;34086;51.076;13.722;2022-09-20T00:38:35;9.80;99.90
48264;DHT22;34086;51.076;13.722;2022-09-20T00:39:35;9.80;99.90
48264;DHT22;34086;51.076;13.722;2022-09-20T00:40:36;9.80;99.90
48264;DHT22;34086;51.076;13.722;2022-09-20T00:41:37;9.90;99.90
48264;DHT22;34086;51.076;13.722;2022-09-20T00:42:38;9.90;99.90
48264;DHT22;34086;51.076;13.722;2022-09-20T00:43:41;9.90;99.90
48264;DHT22;34086;51.076;13.722;2022-09-20T00:45:00;9.90;99.90
48264;DHT22;34086;51.076;13.722;2022-09-20T00:46:01;9.80;99.90
48264;DHT22;34086;51.076;13.722;2022-09-20T00:47:03;9.80;99.90
48264;DHT22;34086;51.076;13.722;2022-09-20T00:48:26;9.80;99.90
48264;DHT22;34086;51.076;13.722;2022-09-20T00:49:29;9.80;99.90
48264;DHT22;34086;51.076;13.722;2022-09-20T00:51:38;9.80;99.90
48264;DHT22;34086;51.076;13.722;2022-09-20T00:52:42;9.80;99.90
48264;DHT22;34086;51.076;13.722;2022-09-20T00:53:48;9.80;99.90
48264;DHT22;34086;51.076;13.722;2022-09-20T00:54:50;9.80;99.90
48264;DHT22;34086;51.076;13.722;2022-09-20T00:56:03;9.80;99.90
48264;DHT22;34086;51.076;13.722;2022-09-20T00:57:05;9.80;99.90
48264;DHT22;34086;51.076;13.722;2022-09-20T00:58:06;9.80;99.90
48264;DHT22;34086;51.076;13.722;2022-09-20T00:59:20;9.80;99.90
48264;DHT22;34086;51.076;13.722;2022-09-20T01:00:22;9.80;99.90
48264;DHT22;34086;51.076;13.722;2022-09-20T01:01:23;9.80;99.90
48264;DHT22;34086;51.076;13.722;2022-09-20T01:02:26;9.80;99.90
48264;DHT22;34086;51.076;13.722;2022-09-20T01:03:29;9.80;99.90
48264;DHT22;34086;51.076;13.722;2022-09-20T01:04:33;9.90;99.90
48264;DHT22;34086;51.076;13.722;2022-09-20T01:05:36;9.90;99.90
48264;DHT22;34086;51.076;13.722;2022-09-20T01:06:38;9.90;99.90
48264;DHT22;34086;51.076;13.722;2022-09-20T01:07:39;9.90;99.90
48264;DHT22;34086;51.076;13.722;2022-09-20T01:08:46;9.90;99.90
48264;DHT22;34086;51.076;13.722;2022-09-20T01:09:48;9.90;99.90
48264;DHT22;34086;51.076;13.722;2022-09-20T01:10:50;9.90;99.90
48264;DHT22;34086;51.076;13.722;2022-09-20T01:11:53;9.90;99.90
48264;DHT22;34086;51.076;13.722;2022-09-20T01:12:55;9.90;99.90
48264;DHT22;34086;51.076;13.722;2022-09-20T01:13:56;9.90;99.90
48264;DHT22;34086;51.076;13.722;2022-09-20T01:14:58;9.90;99.90
48264;DHT22;34086;51.076;13.722;2022-09-20T01:16:00;9.90;99.90
48264;DHT22;34086;51.076;13.722;2022-09-20T01:17:03;9.90;99.90
48264;DHT22;34086;51.076;13.722;2022-09-20T01:18:06;9.90;99.90
48264;DHT22;34086;51.076;13.722;2022-09-20T01:19:18;9.90;99.90
48264;DHT22;34086;51.076;13.722;2022-09-20T01:20:25;9.90;99.90
48264;DHT22;34086;51.076;13.722;2022-09-20T01:21:28;9.90;99.90
48264;DHT22;34086;51.076;13.722;2022-09-20T01:22:56;9.90;99.90
48264;DHT22;34086;51.076;13.722;2022-09-20T01:28:20;9.90;99.90
48264;DHT22;34086;51.076;13.722;2022-09-20T01:29:36;9.90;99.90
48264;DHT22;34086;51.076;13.722;2022-09-20T01:31:01;9.90;99.90
48264;DHT22;34086;51.076;13.722;2022-09-20T01:32:09;9.90;99.90
48264;DHT22;34086;51.076;13.722;2022-09-20T01:34:28;9.90;99.90
48264;DHT22;34086;51.076;13.722;2022-09-20T01:35:33;9.90;99.90
48264;DHT22;34086;51.076;13.722;2022-09-20T01:36:44;9.90;99.90
48264;DHT22;34086;51.076;13.722;2022-09-20T01:39:51;9.90;99.90
48264;DHT22;34086;51.076;13.722;2022-09-20T01:42:07;9.80;99.90
48264;DHT22;34086;51.076;13.722;2022-09-20T01:44:39;9.80;99.90
48264;DHT22;34086;51.076;13.722;2022-09-20T01:45:48;9.80;99.90
48264;DHT22;34086;51.076;13.722;2022-09-20T01:46:57;9.70;99.90
48264;DHT22;34086;51.076;13.722;2022-09-20T01:52:34;9.60;99.90
48264;DHT22;34086;51.076;13.722;2022-09-20T01:55:29;9.70;99.90
48264;DHT22;34086;51.076;13.722;2022-09-20T01:59:50;9.70;99.90
48264;DHT22;34086;51.076;13.722;2022-09-20T02:03:45;9.70;99.90
48264;DHT22;34086;51.076;13.722;2022-09-20T02:05:11;9.60;99.90
48264;DHT22;34086;51.076;13.722;2022-09-20T02:13:03;9.60;99.90
48264;DHT22;34086;51.076;13.722;2022-09-20T02:15:55;9.60;99.90
48264;DHT22;34086;51.076;13.722;2022-09-20T02:17:17;9.60;99.90
48264;DHT22;34086;51.076;13.722;2022-09-20T02:22:27;9.60;99.90
48264;DHT22;34086;51.076;13.722;2022-09-20T02:29:10;9.60;99.90
48264;DHT22;34086;51.076;13.722;2022-09-20T02:31:42;9.60;99.90
48264;DHT22;34086;51.076;13.722;2022-09-20T02:33:22;9.60;99.90
48264;DHT22;34086;51.076;13.722;2022-09-20T02:39:14;9.60;99.90
48264;DHT22;34086;51.076;13.722;2022-09-20T02:45:36;9.60;99.90
48264;DHT22;34086;51.076;13.722;2022-09-20T02:47:59;9.60;99.90
48264;DHT22;34086;51.076;13.722;2022-09-20T02:49:13;9.60;99.90
48264;DHT22;34086;51.076;13.722;2022-09-20T02:50:46;9.70;99.90
48264;DHT22;34086;51.076;13.722;2022-09-20T02:55:17;9.60;99.90
48264;DHT22;34086;51.076;13.722;2022-09-20T02:56:37;9.60;99.90
48264;DHT22;34086;51.076;13.722;2022-09-20T02:58:56;9.60;99.90
48264;DHT22;34086;51.076;13.722;2022-09-20T03:00:09;9.60;99.90
48264;DHT22;34086;51.076;13.722;2022-09-20T03:03:02;9.60;99.90
48264;DHT22;34086;51.076;13.722;2022-09-20T03:04:19;9.70;99.90
48264;DHT22;34086;51.076;13.722;2022-09-20T03:05:57;9.60;99.90
48264;DHT22;34086;51.076;13.722;2022-09-20T03:07:09;9.60;99.90
48264;DHT22;34086;51.076;13.722;2022-09-20T03:08:41;9.60;99.90
48264;DHT22;34086;51.076;13.722;2022-09-20T03:11:25;9.50;99.90
48264;DHT22;34086;51.076;13.722;2022-09-20T03:14:18;9.50;99.90
48264;DHT22;34086;51.076;13.722;2022-09-20T03:18:18;9.50;99.90
48264;DHT22;34086;51.076;13.722;2022-09-20T03:20:57;9.40;99.90
48264;DHT22;34086;51.076;13.722;2022-09-20T03:23:26;9.40;99.90
48264;DHT22;34086;51.076;13.722;2022-09-20T03:26:30;9.40;99.90
48264;DHT22;34086;51.076;13.722;2022-09-20T03:27:53;9.40;99.90
48264;DHT22;34086;51.076;13.722;2022-09-20T03:29:07;9.40;99.90
48264;DHT22;34086;51.076;13.722;2022-09-20T03:33:10;9.40;99.90
48264;DHT22;34086;51.076;13.722;2022-09-20T03:34:54;9.40;99.90
48264;DHT22;34086;51.076;13.722;2022-09-20T03:36:20;9.30;99.90
48264;DHT22;34086;51.076;13.722;2022-09-20T03:40:17;9.20;99.90
48264;DHT22;34086;51.076;13.722;2022-09-20T03:43:00;9.20;99.90
48264;DHT22;34086;51.076;13.722;2022-09-20T03:46:50;9.20;99.90
48264;DHT22;34086;51.076;13.722;2022-09-20T03:51:21;9.30;99.90
48264;DHT22;34086;51.076;13.722;2022-09-20T03:53:27;9.30;99.90
48264;DHT22;34086;51.076;13.722;2022-09-20T03:54:33;9.30;99.90
48264;DHT22;34086;51.076;13.722;2022-09-20T04:00:43;9.30;99.90
48264;DHT22;34086;51.076;13.722;2022-09-20T04:02:06;9.30;99.90
48264;DHT22;34086;51.076;13.722;2022-09-20T04:03:53;9.30;99.90
48264;DHT22;34086;51.076;13.722;2022-09-20T04:04:56;9.30;99.90
48264;DHT22;34086;51.076;13.722;2022-09-20T04:11:24;9.40;99.90
48264;DHT22;34086;51.076;13.722;2022-09-20T04:13:41;9.40;99.90
48264;DHT22;34086;51.076;13.722;2022-09-20T04:14:53;9.40;99.90
48264;DHT22;34086;51.076;13.722;2022-09-20T04:16:34;9.40;99.90
48264;DHT22;34086;51.076;13.722;2022-09-20T04:18:11;9.40;99.90
48264;DHT22;34086;51.076;13.722;2022-09-20T04:19:23;9.40;99.90
48264;DHT22;34086;51.076;13.722;2022-09-20T04:20:49;9.40;99.90
48264;DHT22;34086;51.076;13.722;2022-09-20T04:21:56;9.40;99.90
48264;DHT22;34086;51.076;13.722;2022-09-20T04:23:02;9.50;99.90
48264;DHT22;34086;51.076;13.722;2022-09-20T04:24:09;9.50;99.90
48264;DHT22;34086;51.076;13.722;2022-09-20T04:25:13;9.50;99.90
48264;DHT22;34086;51.076;13.722;2022-09-20T04:26:22;9.50;99.90
48264;DHT22;34086;51.076;13.722;2022-09-20T04:27:45;9.50;99.90
48264;DHT22;34086;51.076;13.722;2022-09-20T04:29:08;9.50;99.90
48264;DHT22;34086;51.076;13.722;2022-09-20T04:30:19;9.50;99.90
48264;DHT22;34086;51.076;13.722;2022-09-20T04:31:36;9.60;99.90
48264;DHT22;34086;51.076;13.722;2022-09-20T04:33:57;9.60;99.90
48264;DHT22;34086;51.076;13.722;2022-09-20T04:37:00;9.50;99.90
48264;DHT22;34086;51.076;13.722;2022-09-20T04:38:11;9.50;99.90
48264;DHT22;34086;51.076;13.722;2022-09-20T04:42:36;9.60;99.90
48264;DHT22;34086;51.076;13.722;2022-09-20T04:50:43;9.60;99.90
48264;DHT22;34086;51.076;13.722;2022-09-20T04:55:05;9.60;99.90
48264;DHT22;34086;51.076;13.722;2022-09-20T04:56:35;9.50;99.90
48264;DHT22;34086;51.076;13.722;2022-09-20T04:59:51;9.50;99.90
48264;DHT22;34086;51.076;13.722;2022-09-20T05:11:39;9.50;99.90
48264;DHT22;34086;51.076;13.722;2022-09-20T05:18:50;9.60;99.90
48264;DHT22;34086;51.076;13.722;2022-09-20T05:28:12;9.50;99.90
48264;DHT22;34086;51.076;13.722;2022-09-20T05:29:37;9.50;99.90
48264;DHT22;34086;51.076;13.722;2022-09-20T05:30:45;9.50;99.90
48264;DHT22;34086;51.076;13.722;2022-09-20T05:40:28;9.50;99.90
48264;DHT22;34086;51.076;13.722;2022-09-20T05:43:32;9.60;99.90
48264;DHT22;34086;51.076;13.722;2022-09-20T05:46:13;9.60;99.90
48264;DHT22;34086;51.076;13.722;2022-09-20T05:48:55;9.70;99.90
48264;DHT22;34086;51.076;13.722;2022-09-20T05:52:24;9.70;99.90
48264;DHT22;34086;51.076;13.722;2022-09-20T05:56:02;9.80;99.90
48264;DHT22;34086;51.076;13.722;2022-09-20T05:58:43;9.80;99.90
48264;DHT22;34086;51.076;13.722;2022-09-20T06:00:13;9.80;99.90
48264;DHT22;34086;51.076;13.722;2022-09-20T06:01:19;9.70;99.90
48264;DHT22;34086;51.076;13.722;2022-09-20T06:04:18;9.70;99.90
48264;DHT22;34086;51.076;13.722;2022-09-20T06:05:49;9.80;99.90
48264;DHT22;34086;51.076;13.722;2022-09-20T06:10:14;9.70;99.90
48264;DHT22;34086;51.076;13.722;2022-09-20T06:11:33;9.80;99.90
48264;DHT22;34086;51.076;13.722;2022-09-20T06:17:01;10.00;99.90
48264;DHT22;34086;51.076;13.722;2022-09-20T06:21:48;9.90;99.90
48264;DHT22;34086;51.076;13.722;2022-09-20T06:22:54;10.00;99.90
48264;DHT22;34086;51.076;13.722;2022-09-20T06:23:57;10.00;99.90
48264;DHT22;34086;51.076;13.722;2022-09-20T06:26:15;10.00;99.90
48264;DHT22;34086;51.076;13.722;2022-09-20T06:27:31;10.00;99.90
48264;DHT22;34086;51.076;13.722;2022-09-20T06:28:37;10.10;99.90
48264;DHT22;34086;51.076;13.722;2022-09-20T06:29:42;10.10;99.90
48264;DHT22;34086;51.076;13.722;2022-09-20T06:30:52;10.20;99.90
48264;DHT22;34086;51.076;13.722;2022-09-20T06:31:54;10.10;99.90
48264;DHT22;34086;51.076;13.722;2022-09-20T06:34:13;10.30;99.90
48264;DHT22;34086;51.076;13.722;2022-09-20T06:35:15;10.20;99.90
48264;DHT22;34086;51.076;13.722;2022-09-20T06:36:24;10.10;99.90
48264;DHT22;34086;51.076;13.722;2022-09-20T06:37:57;10.10;99.90
48264;DHT22;34086;51.076;13.722;2022-09-20T06:40:54;10.10;99.90
48264;DHT22;34086;51.076;13.722;2022-09-20T06:42:14;10.10;99.90
48264;DHT22;34086;51.076;13.722;2022-09-20T06:43:14;10.20;99.90
48264;DHT22;34086;51.076;13.722;2022-09-20T06:44:15;10.30;99.90
48264;DHT22;34086;51.076;13.722;2022-09-20T06:45:16;10.30;99.90
48264;DHT22;34086;51.076;13.722;2022-09-20T06:46:16;10.30;99.90
48264;DHT22;34086;51.076;13.722;2022-09-20T06:47:17;10.20;99.90
48264;DHT22;34086;51.076;13.722;2022-09-20T06:48:18;10.20;99.90
48264;DHT22;34086;51.076;13.722;2022-09-20T06:49:22;10.30;99.90
48264;DHT22;34086;51.076;13.722;2022-09-20T06:50:23;10.40;99.90
48264;DHT22;34086;51.076;13.722;2022-09-20T06:51:26;10.40;99.90
48264;DHT22;34086;51.076;13.722;2022-09-20T06:52:28;10.50;99.90
48264;DHT22;34086;51.076;13.722;2022-09-20T06:53:31;10.60;99.90
48264;DHT22;34086;51.076;13.722;2022-09-20T06:54:33;10.60;99.90
48264;DHT22;34086;51.076;13.722;2022-09-20T06:55:36;10.60;99.90
48264;DHT22;34086;51.076;13.722;2022-09-20T06:56:38;10.60;99.90
48264;DHT22;34086;51.076;13.722;2022-09-20T06:57:38;10.60;99.90
48264;DHT22;34086;51.076;13.722;2022-09-20T06:58:39;10.60;99.90
48264;DHT22;34086;51.076;13.722;2022-09-20T06:59:40;10.60;99.90
48264;DHT22;34086;51.076;13.722;2022-09-20T07:00:40;10.70;99.90
48264;DHT22;34086;51.076;13.722;2022-09-20T07:01:41;10.70;99.90
48264;DHT22;34086;51.076;13.722;2022-09-20T07:02:42;10.90;99.90
48264;DHT22;34086;51.076;13.722;2022-09-20T07:03:43;11.00;99.90
48264;DHT22;34086;51.076;13.722;2022-09-20T07:04:44;11.00;99.90
48264;DHT22;34086;51.076;13.722;2022-09-20T07:05:45;11.00;99.90
48264;DHT22;34086;51.076;13.722;2022-09-20T07:06:46;11.00;99.90
48264;DHT22;34086;51.076;13.722;2022-09-20T07:07:47;11.00;99.90
48264;DHT22;34086;51.076;13.722;2022-09-20T07:08:48;11.00;99.90
48264;DHT22;34086;51.076;13.722;2022-09-20T07:09:48;10.90;99.90
48264;DHT22;34086;51.076;13.722;2022-09-20T07:10:50;10.90;99.90
48264;DHT22;34086;51.076;13.722;2022-09-20T07:11:51;11.00;99.90
48264;DHT22;34086;51.076;13.722;2022-09-20T07:12:57;11.00;99.90
48264;DHT22;34086;51.076;13.722;2022-09-20T07:14:00;11.00;99.90
48264;DHT22;34086;51.076;13.722;2022-09-20T07:15:00;11.00;99.90
48264;DHT22;34086;51.076;13.722;2022-09-20T07:16:03;10.80;99.90
48264;DHT22;34086;51.076;13.722;2022-09-20T07:17:04;10.70;99.90
48264;DHT22;34086;51.076;13.722;2022-09-20T07:18:06;10.60;99.90
48264;DHT22;34086;51.076;13.722;2022-09-20T07:19:07;10.70;99.90
48264;DHT22;34086;51.076;13.722;2022-09-20T07:20:08;10.70;99.90
48264;DHT22;34086;51.076;13.722;2022-09-20T07:21:11;10.60;99.90
48264;DHT22;34086;51.076;13.722;2022-09-20T07:22:12;10.60;99.90
48264;DHT22;34086;51.076;13.722;2022-09-20T07:23:13;10.70;99.90
48264;DHT22;34086;51.076;13.722;2022-09-20T07:24:15;10.60;99.90
48264;DHT22;34086;51.076;13.722;2022-09-20T07:25:15;10.60;99.90
48264;DHT22;34086;51.076;13.722;2022-09-20T07:27:22;10.60;99.90
48264;DHT22;34086;51.076;13.722;2022-09-20T07:28:23;10.50;99.90
48264;DHT22;34086;51.076;13.722;2022-09-20T07:29:24;10.60;99.90
48264;DHT22;34086;51.076;13.722;2022-09-20T07:30:25;10.60;99.90
48264;DHT22;34086;51.076;13.722;2022-09-20T07:31:27;10.60;99.90
48264;DHT22;34086;51.076;13.722;2022-09-20T07:32:28;10.70;99.90
48264;DHT22;34086;51.076;13.722;2022-09-20T07:33:29;10.70;99.90
48264;DHT22;34086;51.076;13.722;2022-09-20T07:34:30;10.70;99.90
48264;DHT22;34086;51.076;13.722;2022-09-20T07:35:31;10.70;99.90
48264;DHT22;34086;51.076;13.722;2022-09-20T07:36:32;10.70;99.90
48264;DHT22;34086;51.076;13.722;2022-09-20T07:37:32;10.80;99.90
48264;DHT22;34086;51.076;13.722;2022-09-20T07:38:33;10.80;99.90
48264;DHT22;34086;51.076;13.722;2022-09-20T07:39:33;10.80;99.90
48264;DHT22;34086;51.076;13.722;2022-09-20T07:40:34;10.80;99.90
48264;DHT22;34086;51.076;13.722;2022-09-20T07:41:35;10.80;99.90
48264;DHT22;34086;51.076;13.722;2022-09-20T07:42:36;10.90;99.90
48264;DHT22;34086;51.076;13.722;2022-09-20T07:43:37;10.90;99.90
48264;DHT22;34086;51.076;13.722;2022-09-20T07:44:37;10.90;99.90
48264;DHT22;34086;51.076;13.722;2022-09-20T07:45:41;10.90;99.90
48264;DHT22;34086;51.076;13.722;2022-09-20T07:46:42;11.00;99.90
48264;DHT22;34086;51.076;13.722;2022-09-20T07:47:44;11.00;99.90
48264;DHT22;34086;51.076;13.722;2022-09-20T07:48:49;11.00;99.90
48264;DHT22;34086;51.076;13.722;2022-09-20T07:49:50;11.00;99.90
48264;DHT22;34086;51.076;13.722;2022-09-20T07:50:56;11.00;99.90
48264;DHT22;34086;51.076;13.722;2022-09-20T07:51:57;11.10;99.90
48264;DHT22;34086;51.076;13.722;2022-09-20T07:52:58;11.10;99.90
48264;DHT22;34086;51.076;13.722;2022-09-20T07:53:59;11.10;99.90
48264;DHT22;34086;51.076;13.722;2022-09-20T07:55:00;11.10;99.90
48264;DHT22;34086;51.076;13.722;2022-09-20T07:56:20;11.10;99.90
48264;DHT22;34086;51.076;13.722;2022-09-20T07:57:20;11.10;99.90
48264;DHT22;34086;51.076;13.722;2022-09-20T07:58:21;11.20;99.90
48264;DHT22;34086;51.076;13.722;2022-09-20T07:59:21;11.20;99.90
48264;DHT22;34086;51.076;13.722;2022-09-20T08:00:23;11.20;99.90
48264;DHT22;34086;51.076;13.722;2022-09-20T08:01:24;11.20;99.90
48264;DHT22;34086;51.076;13.722;2022-09-20T08:02:25;11.20;99.90
48264;DHT22;34086;51.076;13.722;2022-09-20T08:03:27;11.20;99.90
48264;DHT22;34086;51.076;13.722;2022-09-20T08:04:28;11.10;99.90
48264;DHT22;34086;51.076;13.722;2022-09-20T08:05:29;11.10;99.90
48264;DHT22;34086;51.076;13.722;2022-09-20T08:06:31;11.10;99.90
48264;DHT22;34086;51.076;13.722;2022-09-20T08:07:32;11.10;99.90
48264;DHT22;34086;51.076;13.722;2022-09-20T08:08:37;11.10;99.90
48264;DHT22;34086;51.076;13.722;2022-09-20T08:09:38;11.20;99.90
48264;DHT22;34086;51.076;13.722;2022-09-20T08:10:39;11.20;99.90
48264;DHT22;34086;51.076;13.722;2022-09-20T08:11:41;11.20;99.90
48264;DHT22;34086;51.076;13.722;2022-09-20T08:12:42;11.30;99.90
48264;DHT22;34086;51.076;13.722;2022-09-20T08:13:47;11.30;99.90
48264;DHT22;34086;51.076;13.722;2022-09-20T08:14:48;11.40;99.90
48264;DHT22;34086;51.076;13.722;2022-09-20T08:15:48;11.40;99.90
48264;DHT22;34086;51.076;13.722;2022-09-20T08:16:49;11.40;99.90
48264;DHT22;34086;51.076;13.722;2022-09-20T08:17:51;11.40;99.90
48264;DHT22;34086;51.076;13.722;2022-09-20T08:18:59;11.40;99.90
48264;DHT22;34086;51.076;13.722;2022-09-20T08:20:00;11.40;99.90
48264;DHT22;34086;51.076;13.722;2022-09-20T08:21:05;11.40;99.90
48264;DHT22;34086;51.076;13.722;2022-09-20T08:22:06;11.40;99.90
48264;DHT22;34086;51.076;13.722;2022-09-20T08:23:07;11.50;99.90
48264;DHT22;34086;51.076;13.722;2022-09-20T08:24:09;11.50;99.90
48264;DHT22;34086;51.076;13.722;2022-09-20T08:25:10;11.50;99.90
48264;DHT22;34086;51.076;13.722;2022-09-20T08:26:14;11.50;99.90
48264;DHT22;34086;51.076;13.722;2022-09-20T08:27:14;11.50;99.90
48264;DHT22;34086;51.076;13.722;2022-09-20T08:28:15;11.50;99.90
48264;DHT22;34086;51.076;13.722;2022-09-20T08:29:16;11.50;99.90
48264;DHT22;34086;51.076;13.722;2022-09-20T08:30:16;11.40;99.90
48264;DHT22;34086;51.076;13.722;2022-09-20T08:31:19;11.40;99.90
48264;DHT22;34086;51.076;13.722;2022-09-20T08:32:20;11.50;99.90
48264;DHT22;34086;51.076;13.722;2022-09-20T08:33:20;11.50;99.90
48264;DHT22;34086;51.076;13.722;2022-09-20T08:34:21;11.60;99.90
48264;DHT22;34086;51.076;13.722;2022-09-20T08:35:22;11.70;99.90
48264;DHT22;34086;51.076;13.722;2022-09-20T08:36:25;11.70;99.90
48264;DHT22;34086;51.076;13.722;2022-09-20T08:37:25;11.70;99.90
48264;DHT22;34086;51.076;13.722;2022-09-20T08:38:26;11.80;99.90
48264;DHT22;34086;51.076;13.722;2022-09-20T08:39:27;11.80;99.90
48264;DHT22;34086;51.076;13.722;2022-09-20T08:40:28;11.80;99.90
48264;DHT22;34086;51.076;13.722;2022-09-20T08:41:33;11.90;99.90
48264;DHT22;34086;51.076;13.722;2022-09-20T08:42:36;11.80;99.90
48264;DHT22;34086;51.076;13.722;2022-09-20T08:43:40;11.90;99.90
48264;DHT22;34086;51.076;13.722;2022-09-20T08:44:55;11.90;99.90
48264;DHT22;34086;51.076;13.722;2022-09-20T08:45:58;12.00;99.90
48264;DHT22;34086;51.076;13.722;2022-09-20T08:48:05;12.10;99.90
48264;DHT22;34086;51.076;13.722;2022-09-20T08:49:09;12.10;99.90
48264;DHT22;34086;51.076;13.722;2022-09-20T08:50:13;12.10;99.90
48264;DHT22;34086;51.076;13.722;2022-09-20T08:51:15;12.10;99.90
48264;DHT22;34086;51.076;13.722;2022-09-20T08:52:22;12.20;99.90
48264;DHT22;34086;51.076;13.722;2022-09-20T08:53:25;12.20;99.90
48264;DHT22;34086;51.076;13.722;2022-09-20T08:54:31;12.20;99.90
48264;DHT22;34086;51.076;13.722;2022-09-20T08:55:32;12.20;99.90
48264;DHT22;34086;51.076;13.722;2022-09-20T08:56:36;12.30;99.90
48264;DHT22;34086;51.076;13.722;2022-09-20T08:57:36;12.30;99.90
48264;DHT22;34086;51.076;13.722;2022-09-20T08:58:37;12.40;99.90
48264;DHT22;34086;51.076;13.722;2022-09-20T08:59:38;12.40;99.90
48264;DHT22;34086;51.076;13.722;2022-09-20T09:00:42;12.40;99.90
48264;DHT22;34086;51.076;13.722;2022-09-20T09:01:46;12.40;99.90
48264;DHT22;34086;51.076;13.722;2022-09-20T09:02:51;12.50;99.90
48264;DHT22;34086;51.076;13.722;2022-09-20T09:04:01;12.50;99.90
48264;DHT22;34086;51.076;13.722;2022-09-20T09:05:05;12.50;99.90
48264;DHT22;34086;51.076;13.722;2022-09-20T09:06:14;12.50;99.90
48264;DHT22;34086;51.076;13.722;2022-09-20T09:07:19;12.50;99.90
48264;DHT22;34086;51.076;13.722;2022-09-20T09:08:33;12.50;99.90
48264;DHT22;34086;51.076;13.722;2022-09-20T09:09:36;12.60;99.90
48264;DHT22;34086;51.076;13.722;2022-09-20T09:10:38;12.50;99.90
48264;DHT22;34086;51.076;13.722;2022-09-20T09:11:40;12.50;99.90
48264;DHT22;34086;51.076;13.722;2022-09-20T09:12:42;12.50;99.90
48264;DHT22;34086;51.076;13.722;2022-09-20T09:14:04;12.50;99.90
48264;DHT22;34086;51.076;13.722;2022-09-20T09:15:30;12.50;99.90
48264;DHT22;34086;51.076;13.722;2022-09-20T09:16:33;12.60;99.90
48264;DHT22;34086;51.076;13.722;2022-09-20T09:17:33;12.60;99.90
48264;DHT22;34086;51.076;13.722;2022-09-20T09:18:36;12.60;99.90
48264;DHT22;34086;51.076;13.722;2022-09-20T09:19:44;12.60;99.90
48264;DHT22;34086;51.076;13.722;2022-09-20T09:20:45;12.70;99.90
48264;DHT22;34086;51.076;13.722;2022-09-20T09:21:46;12.60;99.90
48264;DHT22;34086;51.076;13.722;2022-09-20T09:22:56;12.50;99.90
48264;DHT22;34086;51.076;13.722;2022-09-20T09:24:03;12.50;99.90
48264;DHT22;34086;51.076;13.722;2022-09-20T09:26:22;12.60;99.90
48264;DHT22;34086;51.076;13.722;2022-09-20T09:27:23;12.70;99.90
48264;DHT22;34086;51.076;13.722;2022-09-20T09:28:25;12.70;99.90
48264;DHT22;34086;51.076;13.722;2022-09-20T09:29:28;12.70;99.90
48264;DHT22;34086;51.076;13.722;2022-09-20T09:30:31;12.80;99.90
48264;DHT22;34086;51.076;13.722;2022-09-20T09:31:32;12.80;99.90
48264;DHT22;34086;51.076;13.722;2022-09-20T09:32:33;12.80;99.90
48264;DHT22;34086;51.076;13.722;2022-09-20T09:33:42;12.80;99.90
48264;DHT22;34086;51.076;13.722;2022-09-20T09:34:44;12.70;99.90
48264;DHT22;34086;51.076;13.722;2022-09-20T09:36:37;12.80;99.90
48264;DHT22;34086;51.076;13.722;2022-09-20T09:38:28;12.80;99.90
48264;DHT22;34086;51.076;13.722;2022-09-20T09:39:32;12.90;99.90
48264;DHT22;34086;51.076;13.722;2022-09-20T09:40:32;13.00;99.90
48264;DHT22;34086;51.076;13.722;2022-09-20T09:41:33;12.90;99.90
48264;DHT22;34086;51.076;13.722;2022-09-20T09:42:35;12.90;99.90
48264;DHT22;34086;51.076;13.722;2022-09-20T09:43:36;12.80;99.90
48264;DHT22;34086;51.076;13.722;2022-09-20T09:44:39;12.80;99.90
48264;DHT22;34086;51.076;13.722;2022-09-20T09:45:40;12.80;99.90
48264;DHT22;34086;51.076;13.722;2022-09-20T09:46:41;12.80;99.90
48264;DHT22;34086;51.076;13.722;2022-09-20T09:47:42;12.80;99.90
48264;DHT22;34086;51.076;13.722;2022-09-20T09:48:43;12.70;99.90
48264;DHT22;34086;51.076;13.722;2022-09-20T09:49:56;12.70;99.90
48264;DHT22;34086;51.076;13.722;2022-09-20T09:51:12;12.70;99.90
48264;DHT22;34086;51.076;13.722;2022-09-20T09:52:16;12.80;99.90
48264;DHT22;34086;51.076;13.722;2022-09-20T09:53:24;12.90;99.90
48264;DHT22;34086;51.076;13.722;2022-09-20T09:54:27;12.90;99.90
48264;DHT22;34086;51.076;13.722;2022-09-20T10:01:39;13.00;99.90
48264;DHT22;34086;51.076;13.722;2022-09-20T10:04:22;13.20;99.90